Data for 11/14/2014

Time Sea-Level Adjusted Pressure Absolute Pressure Temperature Relative Humidity Dew Point   
(mb) (inHg) (mb) (inHg) (C) (F) (%) (C) (F)
00:05 1016 30 845 24.95 -14.5 6 71 -18.6 -1.4
00:10 1016 30 845 24.95 -14.6 5.8 73 -18.5 -1.3
00:15 1016 30 845 24.95 -14.6 5.8 72 -18.6 -1.5
00:20 1016 30 845 24.95 -14.6 5.6 68 -19.2 -2.6
00:25 1016 30 845 24.95 -14.9 5.2 72 -18.8 -1.9
00:30 1016 30 845 24.95 -14.9 5.1 72 -18.9 -2
00:35 1016 30 845 24.95 -15 5 75 -18.5 -1.4
00:40 1016 30 845 24.95 -14.7 5.6 73 -18.6 -1.5
00:45 1016 30 845 24.95 -14.8 5.3 74 -18.4 -1.2
00:50 1016 30 845 24.95 -14.9 5.1 75 -18.4 -1.1
00:55 1016 30 845 24.95 -15 5 75 -18.5 -1.3
01:00 1016 30 845 24.95 -15.1 4.9 77 -18.3 -1
01:05 1015 29.97 845 24.95 -15 4.9 77 -18.2 -0.8
01:10 1015 29.97 845 24.95 -15.1 4.9 78 -18.1 -0.6
01:15 1015 29.97 845 24.95 -14.9 5.2 78 -18 -0.4
01:20 1015 29.97 844 24.92 -14.8 5.4 78 -17.9 -0.2
01:25 1015 29.97 844 24.92 -14.8 5.3 79 -17.7 0.2
01:30 1015 29.97 844 24.92 -14.7 5.5 79 -17.6 0.4
01:35 1015 29.97 844 24.92 -14.6 5.6 79 -17.6 0.4
01:40 1015 29.97 844 24.92 -14.7 5.6 79 -17.6 0.4
01:45 1015 29.97 844 24.92 -14.7 5.6 79 -17.5 0.5
01:50 1015 29.97 844 24.92 -14.7 5.6 79 -17.5 0.4
01:55 1015 29.97 844 24.92 -14.7 5.5 81 -17.3 0.8
02:00 1015 29.97 844 24.92 -14.5 6 80 -17.3 0.9
02:05 1015 29.97 844 24.92 -14.3 6.3 79 -17.1 1.1
02:10 1015 29.97 844 24.92 -14.2 6.4 79 -17.2 1.1
02:15 1015 29.97 844 24.92 -14.2 6.4 78 -17.2 1
02:20 1015 29.97 844 24.92 -14.5 5.9 80 -17.2 1
02:25 1015 29.97 844 24.92 -14.6 5.8 81 -17.1 1.1
02:30 1015 29.97 844 24.92 -14.4 6.1 81 -17 1.4
02:35 1015 29.97 844 24.92 -14.3 6.3 80 -17 1.4
02:40 1015 29.97 844 24.92 -14.3 6.4 79 -17.1 1.2
02:45 1015 29.97 844 24.92 -14.4 6 81 -17.1 1.3
02:50 1015 29.97 844 24.92 -14.5 6 81 -17 1.3
02:55 1015 29.97 844 24.92 -14.5 6 81 -17.1 1.3
03:00 1015 29.97 844 24.92 -14.5 5.9 81 -17 1.4
03:05 1015 29.97 844 24.92 -14.4 6 81 -17.1 1.3
03:10 1015 29.97 844 24.92 -14.6 5.7 82 -17.1 1.2
03:15 1015 29.97 844 24.92 -14.8 5.4 83 -17.1 1.2
03:20 1015 29.97 844 24.92 -14.5 5.9 81 -17.1 1.3
03:25 1015 29.97 844 24.92 -14.4 6.1 81 -17 1.4
03:30 1015 29.97 844 24.92 -14.3 6.3 81 -16.9 1.5
03:35 1015 29.97 844 24.92 -14.4 6.1 81 -17 1.4
03:40 1015 29.97 844 24.92 -14.5 5.9 83 -16.8 1.8
03:45 1015 29.97 844 24.92 -14.3 6.4 81 -16.8 1.8
03:50 1015 29.97 844 24.92 -14.3 6.3 83 -16.6 2
03:55 1015 29.97 844 24.92 -14.3 6.3 81 -16.8 1.8
04:00 1015 29.97 844 24.92 -14.3 6.3 82 -16.8 1.8
04:05 1015 29.97 844 24.92 -14.3 6.2 82 -16.8 1.7
04:10 1014 29.94 844 24.92 -14.5 5.9 83 -16.7 1.9
04:15 1015 29.97 844 24.92 -14.6 5.8 83 -16.9 1.6
04:20 1015 29.97 844 24.92 -14.7 5.6 84 -16.9 1.7
04:25 1015 29.97 844 24.92 -14.5 5.8 83 -16.8 1.8
04:30 1014 29.94 844 24.92 -14.7 5.6 84 -16.9 1.7
04:35 1014 29.94 844 24.92 -14.8 5.5 85 -16.8 1.8
04:40 1014 29.94 844 24.92 -14.5 5.9 83 -16.7 1.9
04:45 1014 29.94 844 24.92 -14.5 5.9 83 -16.7 1.9
04:50 1014 29.94 844 24.92 -14.5 5.9 84 -16.7 2
04:55 1014 29.94 844 24.92 -14.5 5.9 83 -16.7 1.9
05:00 1014 29.94 844 24.92 -14.3 6.2 83 -16.7 2
05:05 1015 29.97 844 24.92 -14.3 6.3 82 -16.6 2
05:10 1015 29.97 844 24.92 -14.3 6.3 83 -16.6 2.1
05:15 1014 29.94 844 24.92 -14.5 6 84 -16.6 2.1
05:20 1014 29.94 844 24.92 -14.5 5.8 84 -16.7 2
05:25 1014 29.94 844 24.92 -14.5 5.9 84 -16.7 2
05:30 1015 29.97 844 24.92 -14.3 6.2 83 -16.6 2.1
05:35 1015 29.97 844 24.92 -14.2 6.4 83 -16.5 2.2
05:40 1015 29.97 844 24.92 -14.2 6.4 83 -16.6 2.2
05:45 1015 29.97 844 24.92 -14.2 6.4 83 -16.6 2.2
05:50 1015 29.97 844 24.92 -14.3 6.3 83 -16.6 2.1
05:55 1015 29.97 844 24.92 -14.3 6.3 83 -16.6 2.1
06:00 1015 29.97 844 24.92 -14.2 6.4 82 -16.6 2.1
06:05 1015 29.97 844 24.92 -14.2 6.5 82 -16.6 2.2
06:10 1015 29.97 844 24.92 -14.1 6.6 82 -16.5 2.2
06:15 1015 29.97 844 24.92 -14.2 6.4 82 -16.6 2.1
06:20 1015 29.97 844 24.92 -14.3 6.3 82 -16.7 2
06:25 1015 29.97 844 24.92 -14.3 6.3 82 -16.7 1.9
06:30 1015 29.97 844 24.92 -14.3 6.2 82 -16.8 1.8
06:35 1015 29.97 844 24.92 -14.4 6 82 -16.8 1.7
06:40 1015 29.97 844 24.92 -14.5 6 82 -16.8 1.7
06:45 1015 29.97 844 24.92 -14.5 6 83 -16.7 1.9
06:50 1014 29.94 844 24.92 -14.5 6 82 -16.9 1.6
06:55 1015 29.97 844 24.92 -14.7 5.6 84 -16.9 1.7
07:00 1014 29.94 844 24.92 -14.5 5.8 83 -16.8 1.7
07:05 1014 29.94 844 24.92 -14.6 5.8 84 -16.8 1.8
07:10 1015 29.97 844 24.92 -14.4 6 84 -16.6 2.1
07:15 1014 29.94 844 24.92 -14.3 6.3 82 -16.7 1.9
07:20 1014 29.94 844 24.92 -14.4 6 83 -16.7 2
07:25 1014 29.94 843 24.89 -14.4 6 83 -16.8 1.8
07:30 1014 29.94 843 24.89 -14.6 5.8 84 -16.7 1.9
07:35 1014 29.94 844 24.92 -14.4 6 83 -16.6 2
07:40 1015 29.97 844 24.92 -14.2 6.4 83 -16.6 2.2
07:45 1015 29.97 844 24.92 -14.2 6.5 82 -16.6 2.1
07:50 1015 29.97 844 24.92 -14.2 6.5 82 -16.6 2.1
07:55 1015 29.97 844 24.92 -14.1 6.6 82 -16.6 2.1
08:00 1015 29.97 844 24.92 -14.1 6.5 81 -16.7 1.9
08:05 1015 29.97 844 24.92 -14.2 6.5 81 -16.8 1.8
08:10 1015 29.97 844 24.92 -14.2 6.4 81 -16.9 1.6
08:15 1015 29.97 844 24.92 -14.2 6.4 81 -16.8 1.8
08:20 1015 29.97 844 24.92 -14.2 6.5 81 -16.7 1.9
08:25 1015 29.97 844 24.92 -14.3 6.2 82 -16.7 1.9
08:30 1015 29.97 844 24.92 -14.2 6.4 82 -16.7 1.9
08:35 1015 29.97 844 24.92 -14.3 6.2 82 -16.7 1.9
08:40 1015 29.97 844 24.92 -14.3 6.4 82 -16.7 1.9
08:45 1015 29.97 844 24.92 -14.2 6.5 82 -16.6 2.1
08:50 1015 29.97 844 24.92 -14.2 6.5 82 -16.6 2
08:55 1015 29.97 844 24.92 -14.1 6.6 82 -16.6 2.1
09:00 1015 29.97 844 24.92 -14.2 6.5 82 -16.6 2
09:05 1015 29.97 844 24.92 -14 6.7 81 -16.6 2.1
09:10 1015 29.97 844 24.92 -13.9 7 80 -16.6 2.1
09:15 1015 29.97 844 24.92 -13.9 7.1 80 -16.6 2.1
09:20 1015 29.97 844 24.92 -13.8 7.1 80 -16.6 2.1
09:25 1015 29.97 844 24.92 -13.9 7 80 -16.7 2
09:30 1015 29.97 844 24.92 -13.8 7.1 80 -16.6 2.1
09:35 1015 29.97 844 24.92 -13.9 7.1 79 -16.7 1.9
09:40 1015 29.97 844 24.92 -13.8 7.2 80 -16.5 2.3
09:45 1015 29.97 844 24.92 -13.5 7.7 79 -16.3 2.6
09:50 1015 29.97 844 24.92 -13.4 7.8 77 -16.6 2.2
09:55 1015 29.97 844 24.92 -13.6 7.6 77 -16.7 1.9
10:00 1015 29.97 844 24.92 -13.4 7.8 78 -16.6 2.2
10:05 1015 29.97 844 24.92 -13.2 8.3 76 -16.5 2.3
10:10 1015 29.97 845 24.95 -13.1 8.5 76 -16.5 2.3
10:15 1015 29.97 845 24.95 -13.1 8.5 75 -16.7 1.9
10:20 1015 29.97 845 24.95 -13 8.5 76 -16.5 2.3
10:25 1015 29.97 845 24.95 -12.9 8.8 75 -16.5 2.3
10:30 1015 29.97 845 24.95 -12.8 8.9 74 -16.5 2.2
10:35 1015 29.97 845 24.95 -13.1 8.5 75 -16.5 2.2
10:40 1015 29.97 845 24.95 -13.5 7.8 78 -16.6 2.2
10:45 1015 29.97 845 24.95 -13.3 8.2 76 -16.6 2.2
10:50 1015 29.97 845 24.95 -12.9 8.7 74 -16.6 2.2
10:55 1015 29.97 844 24.92 -13.2 8.3 76 -16.6 2.1
11:00 1015 29.97 844 24.92 -13.2 8.2 76 -16.6 2.2
11:05 1015 29.97 844 24.92 -13.1 8.5 75 -16.6 2.1
11:10 1015 29.97 844 24.92 -13.1 8.5 75 -16.6 2.2
11:15 1015 29.97 844 24.92 -13 8.7 74 -16.6 2.1
11:20 1015 29.97 844 24.92 -12.7 9.2 74 -16.4 2.5
11:25 1015 29.97 844 24.92 -12.2 10 71 -16.6 2.2
11:30 1015 29.97 844 24.92 -12.8 9 72 -16.8 1.8
11:35 1015 29.97 844 24.92 -12.6 9.4 74 -16.3 2.6
11:40 1015 29.97 844 24.92 -12.3 9.9 72 -16.3 2.6
11:45 1015 29.97 844 24.92 -11.8 10.7 71 -16.1 3
11:50 1015 29.97 844 24.92 -11.5 11.3 70 -16 3.2
11:55 1015 29.97 844 24.92 -11.8 10.8 73 -15.8 3.6
12:00 1015 29.97 845 24.95 -11.5 11.4 69 -16.1 3.1
12:05 1015 29.97 845 24.95 -11.2 11.8 69 -15.8 3.5
12:10 1015 29.97 845 24.95 -11.3 11.7 68 -16 3.2
12:15 1015 29.97 845 24.95 -11.4 11.4 70 -15.9 3.4
12:20 1015 29.97 844 24.92 -11.3 11.7 68 -16 3.2
12:25 1015 29.97 844 24.92 -11.2 11.8 68 -16 3.2
12:30 1015 29.97 844 24.92 -11.2 11.9 67 -16.2 2.8
12:35 1015 29.97 844 24.92 -11.3 11.6 70 -15.8 3.5
12:40 1015 29.97 844 24.92 -11.1 12 68 -16 3.3
12:45 1015 29.97 844 24.92 -11 12.2 67 -16 3.2
12:50 1015 29.97 844 24.92 -11.2 11.8 69 -15.8 3.6
12:55 1015 29.97 844 24.92 -11.2 11.8 69 -15.9 3.4
13:00 1015 29.97 844 24.92 -10.9 12.4 69 -15.5 4
13:05 1015 29.97 844 24.92 -10.9 12.5 70 -15.4 4.3
13:10 1015 29.97 844 24.92 -11 12.3 71 -15.3 4.4
13:15 1015 29.97 844 24.92 -11.2 11.9 70 -15.6 4
13:20 1015 29.97 844 24.92 -11.2 11.9 69 -15.8 3.5
13:25 1015 29.97 844 24.92 -11.2 11.9 71 -15.5 4.2
13:30 1015 29.97 844 24.92 -10.8 12.5 68 -15.6 3.9
13:35 1015 29.97 844 24.92 -10.3 13.4 67 -15.3 4.4
13:40 1015 29.97 844 24.92 -10.1 13.8 65 -15.4 4.2
13:45 1015 29.97 844 24.92 -10.5 13.2 68 -15.4 4.3
13:50 1015 29.97 844 24.92 -10.5 13 68 -15.4 4.3
13:55 1015 29.97 844 24.92 -11 12.3 69 -15.6 3.9
14:00 1015 29.97 844 24.92 -11.4 11.6 71 -15.5 4
14:05 1015 29.97 844 24.92 -11 12.2 70 -15.5 4.1
14:10 1015 29.97 844 24.92 -10.9 12.4 69 -15.5 4.1
14:15 1015 29.97 844 24.92 -11 12.2 69 -15.6 3.9
14:20 1015 29.97 844 24.92 -10.8 12.5 69 -15.5 4.2
14:25 1015 29.97 844 24.92 -10.7 12.7 68 -15.5 4.2
14:30 1015 29.97 844 24.92 -10.6 12.9 68 -15.5 4.2
14:35 1015 29.97 844 24.92 -11 12.2 70 -15.6 4
14:40 1015 29.97 844 24.92 -11.2 11.9 69 -15.8 3.5
14:45 1015 29.97 844 24.92 -10.9 12.4 69 -15.4 4.2
14:50 1015 29.97 844 24.92 -10.8 12.7 68 -15.5 4
14:55 1015 29.97 844 24.92 -10.9 12.5 71 -15.2 4.7
15:00 1015 29.97 844 24.92 -10.7 12.8 70 -15.1 4.8
15:05 1015 29.97 844 24.92 -10.3 13.5 66 -15.5 4.1
15:10 1015 29.97 844 24.92 -11.1 12.1 73 -15.1 4.8
15:15 1015 29.97 844 24.92 -11.4 11.4 72 -15.5 4.2
15:20 1015 29.97 844 24.92 -11.5 11.2 70 -15.9 3.4
15:25 1015 29.97 844 24.92 -11.6 11.1 71 -15.9 3.5
15:30 1014 29.94 844 24.92 -11.3 11.7 67 -16.3 2.6
15:35 1014 29.94 844 24.92 -11.5 11.3 70 -15.9 3.5
15:40 1015 29.97 844 24.92 -11.7 11 72 -15.8 3.6
15:45 1015 29.97 844 24.92 -11.9 10.5 77 -15.3 4.5
15:50 1015 29.97 844 24.92 -11.4 11.4 75 -15 5
15:55 1015 29.97 844 24.92 -11.2 11.8 74 -15.1 4.9
16:00 1015 29.97 844 24.92 -11.1 12 74 -15 5.1
16:05 1015 29.97 844 24.92 -11 12.1 74 -14.8 5.3
16:10 1015 29.97 844 24.92 -10.9 12.4 72 -15 5.1
16:15 1015 29.97 844 24.92 -11 12.1 72 -15.1 4.9
16:20 1015 29.97 844 24.92 -11.1 12 73 -15 4.9
16:25 1015 29.97 844 24.92 -11.1 12 73 -15 5
16:30 1015 29.97 844 24.92 -11.2 11.9 73 -15 5
16:35 1015 29.97 844 24.92 -11.2 11.8 74 -15 5
16:40 1015 29.97 844 24.92 -11.4 11.5 74 -15.2 4.7
16:45 1015 29.97 844 24.92 -11.7 11 76 -15.2 4.7
16:50 1015 29.97 844 24.92 -11.6 11.1 76 -15.1 4.8
16:55 1015 29.97 844 24.92 -11.5 11.3 75 -15.1 4.9
17:00 1015 29.97 844 24.92 -11.5 11.3 76 -14.9 5.2
17:05 1015 29.97 844 24.92 -11.5 11.3 76 -14.9 5.2
17:10 1015 29.97 844 24.92 -11.5 11.2 77 -14.8 5.3
17:15 1015 29.97 844 24.92 -11.6 11.1 76 -15 5
17:20 1015 29.97 844 24.92 -11.9 10.6 79 -14.8 5.4
17:25 1015 29.97 844 24.92 -11.9 10.7 80 -14.7 5.6
17:30 1015 29.97 844 24.92 -11.9 10.7 79 -14.7 5.5
17:35 1015 29.97 844 24.92 -12 10.5 80 -14.8 5.4
17:40 1015 29.97 844 24.92 -12.1 10.2 80 -14.9 5.2
17:45 1015 29.97 844 24.92 -12.4 9.8 82 -14.9 5.2
17:50 1015 29.97 844 24.92 -12.4 9.6 84 -14.6 5.7
17:55 1015 29.97 844 24.92 -12.3 9.8 84 -14.5 5.9
18:00 1015 29.97 845 24.95 -12.4 9.8 84 -14.6 5.8
18:05 1015 29.97 844 24.92 -12.3 9.8 83 -14.6 5.7
18:10 1015 29.97 845 24.95 -12.4 9.6 84 -14.6 5.7
18:15 1015 29.97 845 24.95 -12.5 9.5 83 -14.8 5.4
18:20 1015 29.97 845 24.95 -12.6 9.3 82 -15.1 4.8
18:25 1015 29.97 844 24.92 -12.7 9.2 82 -15.2 4.6
18:30 1015 29.97 844 24.92 -12.6 9.4 81 -15.3 4.5
18:35 1015 29.97 844 24.92 -12.6 9.4 78 -15.7 3.8
18:40 1015 29.97 844 24.92 -12.7 9.2 79 -15.6 3.9
18:45 1015 29.97 844 24.92 -12.7 9.2 77 -15.9 3.4
18:50 1015 29.97 844 24.92 -12.7 9.2 77 -15.9 3.4
18:55 1015 29.97 844 24.92 -12.7 9.2 77 -15.9 3.4
19:00 1015 29.97 844 24.92 -12.7 9.2 78 -15.8 3.6
19:05 1015 29.97 845 24.95 -12.6 9.3 80 -15.3 4.4
19:10 1015 29.97 845 24.95 -12.6 9.3 80 -15.4 4.3
19:15 1016 30 845 24.95 -12.7 9.2 81 -15.3 4.4
19:20 1016 30 845 24.95 -12.5 9.4 81 -15.1 4.8
19:25 1016 30 845 24.95 -12.5 9.4 81 -15.2 4.7
19:30 1016 30 845 24.95 -12.5 9.5 81 -15.1 4.8
19:35 1016 30 845 24.95 -12.6 9.4 78 -15.7 3.7
19:40 1016 30 845 24.95 -12.6 9.4 76 -15.9 3.3
19:45 1016 30 845 24.95 -12.6 9.4 78 -15.7 3.7
19:50 1016 30 845 24.95 -12.6 9.3 78 -15.7 3.7
19:55 1016 30 845 24.95 -12.6 9.3 76 -16 3.2
20:00 1016 30 845 24.95 -12.6 9.4 76 -16 3.2
20:05 1016 30 845 24.95 -12.5 9.4 74 -16.2 2.9
20:10 1016 30 845 24.95 -12.6 9.4 76 -15.9 3.3
20:15 1016 30 845 24.95 -12.6 9.3 75 -16.2 2.9
20:20 1016 30 845 24.95 -12.7 9.1 78 -15.8 3.5
20:25 1016 30 845 24.95 -12.8 9 77 -16 3.2
20:30 1016 30 846 24.98 -12.9 8.9 80 -15.6 3.9
20:35 1016 30 846 24.98 -12.9 8.8 79 -15.9 3.5
20:40 1016 30 846 24.98 -13 8.6 80 -15.7 3.8
20:45 1016 30 846 24.98 -13 8.6 80 -15.8 3.5
20:50 1017 30.03 846 24.98 -13 8.6 80 -15.8 3.6
20:55 1017 30.03 846 24.98 -13.1 8.5 80 -15.9 3.4
21:00 1017 30.03 846 24.98 -13.1 8.4 80 -15.8 3.5
21:05 1017 30.03 846 24.98 -13.2 8.3 80 -16 3.3
21:10 1017 30.03 846 24.98 -13.1 8.3 80 -15.8 3.5
21:15 1017 30.03 846 24.98 -13.2 8.3 80 -16 3.2
21:20 1017 30.03 846 24.98 -13.2 8.2 79 -16.2 2.9
21:25 1017 30.03 846 24.98 -13.2 8.2 78 -16.2 2.8
21:30 1017 30.03 846 24.98 -13.3 8.1 78 -16.4 2.5
21:35 1017 30.03 846 24.98 -13.3 8 78 -16.4 2.5
21:40 1017 30.03 846 24.98 -13.3 8 77 -16.6 2.1
21:45 1017 30.03 846 24.98 -13.4 8 76 -16.8 1.8
21:50 1017 30.03 846 24.98 -13.3 8 77 -16.6 2.1
21:55 1017 30.03 846 24.98 -13.3 8.1 75 -16.8 1.8
22:00 1017 30.03 846 24.98 -13.3 8 76 -16.7 2
22:05 1017 30.03 846 24.98 -13.4 7.9 77 -16.6 2.1
22:10 1017 30.03 847 25.01 -13.4 7.9 77 -16.6 2.2
22:15 1017 30.03 847 25.01 -13.4 7.9 77 -16.6 2.1
22:20 1017 30.03 847 25.01 -13.4 7.8 77 -16.6 2.1
22:25 1018 30.06 847 25.01 -13.5 7.8 79 -16.4 2.4
22:30 1018 30.06 847 25.01 -13.5 7.7 78 -16.5 2.2
22:35 1018 30.06 847 25.01 -13.5 7.7 78 -16.6 2.1
22:40 1018 30.06 847 25.01 -13.6 7.6 77 -16.7 1.9
22:45 1018 30.06 847 25.01 -13.6 7.6 76 -16.9 1.5
22:50 1018 30.06 847 25.01 -13.6 7.5 78 -16.7 2
22:55 1018 30.06 847 25.01 -13.7 7.4 79 -16.6 2.1
23:00 1018 30.06 847 25.01 -13.7 7.3 79 -16.6 2.2
23:05 1018 30.06 847 25.01 -13.8 7.2 80 -16.5 2.4
23:10 1018 30.06 847 25.01 -13.8 7.1 81 -16.5 2.3
23:15 1018 30.06 847 25.01 -13.8 7.1 81 -16.4 2.4
23:20 1018 30.06 847 25.01 -13.8 7.1 81 -16.5 2.3
23:25 1018 30.06 847 25.01 -13.9 7 81 -16.5 2.3
23:30 1018 30.06 847 25.01 -13.9 7 82 -16.4 2.5
23:35 1018 30.06 847 25.01 -13.8 7.1 82 -16.3 2.6
23:40 1018 30.06 847 25.01 -13.9 6.9 82 -16.4 2.6
23:45 1018 30.06 847 25.01 -14 6.9 83 -16.3 2.7
23:50 1018 30.06 847 25.01 -14 6.9 83 -16.3 2.7
23:55 1018 30.06 847 25.01 -14 6.9 83 -16.3 2.7
24:00 1018 30.06 848 25.04 -14 6.8 83 -16.3 2.7